首页
METAR-TAF:

METAR-TAF

机场 :

斯瓦尔巴朗伊尔机场

朗伊爾城, 挪威

纬度: 78-15N, 经度: 015-28E, 海拔: 2米

当前天气观测

该预报发布于29分钟前的10:20 UTC
风速6节,风向南转南东
温度 -4°C
湿度 74%
气压 1020 hPa
能见度10公里或以上
多云层高于3500英尺

METAR: ENSB 151020Z 16006KT 9999 BKN035 M04/M08 Q1020 NOSIG RMK WIND 1400FT 20010KT

时间: 11:49 (10:49 UTC)

预报

预报有效从15日的 06点(UTC)到 16日的 06点(UTC)
风速9节,风向南转南东
能见度10公里或以上
少量云层高于2500英尺
多云层高于4000英尺
短暂存在
从 15日的 18点(UTC)到 16日的 06点(UTC)
风速15节,风向南转西南,有时为25节阵风

TAF: ENSB 1506/1606 15009KT 9999 FEW025 BKN040 TEMPO 1518/1606 21015G25KT

超过4000个机场的气象观测和天气预报(METAR&TAF报告)。

可查询的气象台以黄色和红色小点在地图上表示。

将鼠标移到小点上方,可查看气象台名称。

然后点击查看天气观测和预报。

如需切换地图:点击带黑十字的绿色按钮放大地图;点击带横线的绿色按钮缩小地图;或者点击绿色箭头查看邻近地区的地图。


METAR-TAF: